createdAt,value
2019-01-11T00:00:01.470Z,96.13
2019-01-11T00:02:32.007Z,96.24
2019-01-11T00:05:02.662Z,96.37
2019-01-11T00:07:33.267Z,96.33
2019-01-11T00:10:04.039Z,96.35
2019-01-11T00:12:34.598Z,96.35
2019-01-11T00:15:05.947Z,96.39
2019-01-11T00:17:36.514Z,96.32
2019-01-11T00:20:07.765Z,96.33
2019-01-11T00:22:38.284Z,96.46
2019-01-11T00:25:09.242Z,96.63
2019-01-11T00:27:39.823Z,96.83
2019-01-11T00:30:11.095Z,96.86
2019-01-11T00:32:41.689Z,96.90
2019-01-11T00:35:12.213Z,96.95
2019-01-11T00:37:42.690Z,97.11
2019-01-11T00:40:13.326Z,97.20
2019-01-11T00:42:43.891Z,97.32
2019-01-11T05:02:07.301Z,99.54
2019-01-11T05:04:37.832Z,99.54
2019-01-11T05:07:08.398Z,99.54
2019-01-11T05:09:39.037Z,99.57
2019-01-11T05:12:09.488Z,99.62
2019-01-11T05:14:39.959Z,99.62
2019-01-11T05:17:10.465Z,99.64
2019-01-11T05:19:40.931Z,99.67
2019-01-11T05:22:11.400Z,99.68
2019-01-11T05:24:41.912Z,99.67
2019-01-11T05:27:12.433Z,99.69
2019-01-11T05:29:42.912Z,99.73
2019-01-11T05:32:13.481Z,99.75
2019-01-11T05:34:43.959Z,99.77
2019-01-11T05:37:14.465Z,99.77
2019-01-11T05:39:45.032Z,99.79
2019-01-11T05:42:15.650Z,99.78
2019-01-11T05:44:46.131Z,99.78
2019-01-11T05:47:16.672Z,99.78
2019-01-11T05:49:47.229Z,99.76
2019-01-11T05:52:17.732Z,99.77
2019-01-11T05:54:48.173Z,99.81
2019-01-11T05:57:18.724Z,99.78
2019-01-11T05:59:49.216Z,99.79
2019-01-11T06:02:19.829Z,99.89
2019-01-11T06:05:10.937Z,99.78
2019-01-11T06:07:46.077Z,99.76
2019-01-11T06:10:17.183Z,99.75
2019-01-11T06:12:47.828Z,99.69
2019-01-11T06:15:18.315Z,99.67
2019-01-11T06:17:48.834Z,99.63
2019-01-11T06:20:19.299Z,99.63
2019-01-11T06:22:49.839Z,99.63
2019-01-11T06:25:20.304Z,99.58
2019-01-11T06:27:50.779Z,99.58
2019-01-11T06:30:21.309Z,99.58
2019-01-11T06:32:51.792Z,99.60
2019-01-11T06:35:22.336Z,99.59
2019-01-11T06:37:52.933Z,99.58
2019-01-11T06:40:23.424Z,99.57
2019-01-11T06:42:53.903Z,99.58
2019-01-11T07:01:38.269Z,99.59
2019-01-11T07:04:08.880Z,99.58
2019-01-11T07:06:40.962Z,99.60
2019-01-11T07:09:11.493Z,99.59
2019-01-11T07:11:42.142Z,99.63
2019-01-11T07:14:13.417Z,99.59
2019-01-11T07:16:45.349Z,99.63
2019-01-11T07:19:15.955Z,99.60
2019-01-11T07:21:46.615Z,99.63
2019-01-11T07:24:17.286Z,99.64
2019-01-11T07:26:47.889Z,99.76
2019-01-11T07:29:18.482Z,99.67
2019-01-11T07:31:49.189Z,99.63
2019-01-11T07:34:19.890Z,99.60
2019-01-11T07:36:53.050Z,99.60
2019-01-11T07:39:31.268Z,99.64
2019-01-11T07:42:01.960Z,99.66
2019-01-11T07:44:32.628Z,99.65
2019-01-11T07:47:03.516Z,99.56
2019-01-11T07:49:34.216Z,99.46
2019-01-11T07:52:04.843Z,99.43
2019-01-11T07:54:35.520Z,99.44
2019-01-11T07:57:06.171Z,99.51
2019-01-11T07:59:36.801Z,99.49
2019-01-11T08:02:07.675Z,99.49
2019-01-11T08:04:38.392Z,99.46
2019-01-11T08:07:10.012Z,99.43
2019-01-11T08:09:40.722Z,99.38
2019-01-11T08:12:11.346Z,99.33
2019-01-11T08:14:41.898Z,99.24
2019-01-11T08:17:12.519Z,99.27
2019-01-11T08:19:43.095Z,99.20
2019-01-11T08:22:27.409Z,99.18
2019-01-11T08:25:03.183Z,99.17
2019-01-11T08:27:33.757Z,99.05
2019-01-11T08:30:05.417Z,99.08
2019-01-11T08:32:35.926Z,99.04
2019-01-11T08:35:09.094Z,99.03
2019-01-11T08:37:39.834Z,99.04
2019-01-11T08:40:11.730Z,99.06
2019-01-11T08:42:42.273Z,98.95
2019-01-11T08:45:13.467Z,98.84
2019-01-11T08:47:44.267Z,98.67
2019-01-11T08:50:18.536Z,98.63
2019-01-11T08:52:49.214Z,98.33
2019-01-11T08:55:21.524Z,98.06
2019-01-11T08:57:52.341Z,97.88
2019-01-11T09:00:23.125Z,97.93
2019-01-11T09:02:53.823Z,97.85
2019-01-11T09:05:24.515Z,98.06
2019-01-11T09:07:55.177Z,98.17
2019-01-11T09:10:25.772Z,98.10
2019-01-11T09:12:56.423Z,97.98
2019-01-11T09:15:26.970Z,97.83
2019-01-11T09:18:17.235Z,97.78
2019-01-11T09:20:47.798Z,97.82
2019-01-11T09:23:18.577Z,97.86
2019-01-11T09:25:49.727Z,97.89
2019-01-11T09:28:20.389Z,97.77
2019-01-11T09:30:51.107Z,97.82
2019-01-11T09:33:21.706Z,97.98
2019-01-11T09:35:52.622Z,98.13
2019-01-11T09:38:23.210Z,97.96
2019-01-11T09:40:53.841Z,97.84
2019-01-11T09:43:24.403Z,98.05
2019-01-11T09:45:55.106Z,98.20
2019-01-11T09:48:25.720Z,98.29
2019-01-11T09:50:56.294Z,98.23
2019-01-11T09:53:26.958Z,98.15
2019-01-11T09:55:57.571Z,98.19
2019-01-11T09:58:28.173Z,98.28
2019-01-11T10:00:59.295Z,98.31
2019-01-11T10:03:30.095Z,98.42
2019-01-11T10:06:00.750Z,98.29
2019-01-11T10:08:31.297Z,98.18
2019-01-11T10:11:02.185Z,97.96
2019-01-11T10:13:32.841Z,97.95
2019-01-11T10:16:03.486Z,98.03
2019-01-11T10:18:34.153Z,97.91
2019-01-11T10:21:04.793Z,97.87
2019-01-11T10:23:35.459Z,97.69
2019-01-11T10:26:06.375Z,97.87
2019-01-11T10:28:37.026Z,97.87
2019-01-11T10:31:07.687Z,97.83
2019-01-11T10:33:38.294Z,97.81
2019-01-11T10:36:08.923Z,97.70
2019-01-11T10:38:39.597Z,97.79
2019-01-11T10:41:10.271Z,97.66
2019-01-11T10:43:40.850Z,97.14
2019-01-11T10:46:30.282Z,97.31
2019-01-11T10:49:21.935Z,97.24
2019-01-11T10:51:52.688Z,97.37
2019-01-11T10:54:39.328Z,97.63
2019-01-11T10:57:13.172Z,97.97
2019-01-11T10:59:44.040Z,98.08
2019-01-11T11:02:14.658Z,98.09
2019-01-11T11:04:45.231Z,98.15
2019-01-11T11:07:15.973Z,97.95
2019-01-11T11:09:46.587Z,97.82
2019-01-11T11:12:17.211Z,97.85
2019-01-11T11:14:47.747Z,97.78
2019-01-11T11:17:18.384Z,97.51
2019-01-11T11:19:48.969Z,97.50
2019-01-11T11:22:19.547Z,97.53
2019-01-11T11:24:50.125Z,97.61
2019-01-11T11:27:20.991Z,97.62
2019-01-11T11:29:51.716Z,97.34
2019-01-11T11:32:28.603Z,97.55
2019-01-11T11:34:59.173Z,97.51
2019-01-11T11:37:29.708Z,97.48
2019-01-11T11:40:00.381Z,97.54
2019-01-11T11:42:30.900Z,97.54
2019-01-11T11:45:01.425Z,97.35
2019-01-11T11:47:32.029Z,97.34
2019-01-11T11:50:02.626Z,97.15
2019-01-11T11:52:33.157Z,97.22
2019-01-11T11:55:03.696Z,97.22
2019-01-11T11:57:34.222Z,97.34
2019-01-11T12:00:07.112Z,97.27
2019-01-11T12:02:37.784Z,97.39
2019-01-11T12:05:08.646Z,97.43
2019-01-11T12:07:39.166Z,97.35
2019-01-11T12:10:12.736Z,97.21
2019-01-11T12:12:43.348Z,96.84
2019-01-11T12:15:15.239Z,96.87
2019-01-11T12:17:45.776Z,96.62
2019-01-11T12:20:37.434Z,96.87
2019-01-11T12:23:08.026Z,96.77
2019-01-11T12:25:38.578Z,96.96
2019-01-11T12:28:09.318Z,96.92
2019-01-11T12:30:40.013Z,96.71
2019-01-11T12:33:10.528Z,96.61
2019-01-11T12:35:41.085Z,96.49
2019-01-11T12:38:13.845Z,96.17
2019-01-11T12:40:44.036Z,96.25
2019-01-11T12:43:14.614Z,95.93
2019-01-11T12:46:04.235Z,95.49
2019-01-11T12:48:34.986Z,95.31
2019-01-11T12:51:05.569Z,94.70
2019-01-11T12:53:36.071Z,94.32
2019-01-11T12:56:06.595Z,94.75
2019-01-11T12:58:37.193Z,94.36
2019-01-11T13:01:07.885Z,94.32
2019-01-11T13:03:38.596Z,94.14
2019-01-11T13:06:09.287Z,93.71
2019-01-11T13:08:40.078Z,93.57
2019-01-11T13:11:10.818Z,92.62
2019-01-11T13:13:41.703Z,92.77
2019-01-11T13:16:12.454Z,92.47
2019-01-11T13:18:43.021Z,92.34
2019-01-11T13:21:13.812Z,92.35
2019-01-11T13:23:44.325Z,92.53
2019-01-11T13:26:14.827Z,92.52
2019-01-11T13:28:45.529Z,91.44
2019-01-11T13:31:16.158Z,91.51
2019-01-11T13:33:46.686Z,91.48
2019-01-11T13:36:20.712Z,90.87
2019-01-11T13:38:51.204Z,90.99
2019-01-11T13:41:21.757Z,90.70
2019-01-11T13:43:52.659Z,90.22
2019-01-11T13:46:23.239Z,89.57
2019-01-11T13:48:54.022Z,89.40
2019-01-11T13:51:24.681Z,89.61
2019-01-11T13:53:55.302Z,89.28
2019-01-11T13:56:25.932Z,89.00
2019-01-11T13:58:56.491Z,88.81
2019-01-11T14:01:27.063Z,88.66
2019-01-11T14:03:57.712Z,88.69
2019-01-11T14:06:28.329Z,87.92
2019-01-11T14:08:59.102Z,87.88
2019-01-11T14:11:29.701Z,88.06
2019-01-11T14:14:00.276Z,87.13
2019-01-11T14:16:30.850Z,88.11
2019-01-11T14:19:01.393Z,88.46
2019-01-11T14:21:32.616Z,88.28
2019-01-11T14:24:03.245Z,87.83
2019-01-11T14:26:33.827Z,87.22
2019-01-11T14:29:04.593Z,86.26
2019-01-11T14:31:35.108Z,86.48
2019-01-11T14:34:05.942Z,86.91
2019-01-11T14:36:36.472Z,86.42
2019-01-11T14:39:10.173Z,86.47
2019-01-11T14:41:41.095Z,84.93
2019-01-11T14:44:14.199Z,85.12
2019-01-11T14:46:44.752Z,85.68
2019-01-11T14:49:15.491Z,85.46
2019-01-11T14:51:46.074Z,84.54
2019-01-11T14:54:16.693Z,85.11
2019-01-11T14:56:47.793Z,85.11
2019-01-11T14:59:18.337Z,85.26
2019-01-11T15:01:48.832Z,85.24
2019-01-11T15:04:21.818Z,85.18
2019-01-11T15:06:52.361Z,84.35
2019-01-11T15:09:22.938Z,83.44
2019-01-11T15:11:53.536Z,83.91
2019-01-11T15:14:24.097Z,84.34
2019-01-11T15:16:54.638Z,83.76
2019-01-11T15:19:25.323Z,84.34
2019-01-11T15:21:55.989Z,84.22
2019-01-11T15:24:26.720Z,84.51
2019-01-11T15:26:57.501Z,84.62
2019-01-11T15:29:28.232Z,84.46
2019-01-11T15:31:58.902Z,84.58
2019-01-11T15:34:29.677Z,84.26
2019-01-11T15:37:00.483Z,84.61
2019-01-11T15:39:31.222Z,84.95
2019-01-11T15:42:02.084Z,85.37
2019-01-11T15:44:32.767Z,85.11
2019-01-11T15:47:03.586Z,85.45
2019-01-11T15:49:34.240Z,85.44
2019-01-11T15:52:05.321Z,85.39
2019-01-11T15:54:35.898Z,85.15
2019-01-11T15:57:06.552Z,84.62
2019-01-11T16:00:24.992Z,84.97
2019-01-11T16:02:55.721Z,84.87
2019-01-11T16:05:26.377Z,84.40
2019-01-11T16:07:57.058Z,84.74
2019-01-11T16:10:27.658Z,84.59
2019-01-11T16:13:23.923Z,84.56
2019-01-11T16:16:33.708Z,84.73
2019-01-11T16:19:04.259Z,85.25
2019-01-11T16:21:34.958Z,84.82
2019-01-11T16:24:06.093Z,84.50
2019-01-11T16:26:36.729Z,84.20
2019-01-11T16:29:07.255Z,83.95
2019-01-11T16:31:37.999Z,84.14
2019-01-11T16:34:09.854Z,83.61
2019-01-11T16:36:40.591Z,83.61
2019-01-11T16:39:11.659Z,83.56
2019-01-11T16:41:42.159Z,83.32
2019-01-11T16:44:12.689Z,83.15
2019-01-11T16:46:43.289Z,83.25
2019-01-11T16:49:13.820Z,82.85
2019-01-11T16:51:44.492Z,83.13
2019-01-11T16:54:15.207Z,82.42
2019-01-11T16:56:45.756Z,82.48
2019-01-11T16:59:16.352Z,82.54
2019-01-11T17:01:46.974Z,82.15
2019-01-11T17:04:17.514Z,82.55
2019-01-11T17:06:48.009Z,82.54
2019-01-11T17:09:18.526Z,82.20
2019-01-11T17:11:49.069Z,82.73
2019-01-11T17:14:19.573Z,82.80
2019-01-11T17:16:50.132Z,82.87
2019-01-11T17:19:20.635Z,82.29
2019-01-11T17:21:51.168Z,82.47
2019-01-11T17:24:21.713Z,82.22
2019-01-11T17:26:52.204Z,82.30
2019-01-11T17:29:22.685Z,82.26
2019-01-11T17:31:53.318Z,82.04
2019-01-11T17:34:23.803Z,82.26
2019-01-11T17:36:54.321Z,82.49
2019-01-11T17:39:24.878Z,82.87
2019-01-11T17:41:55.409Z,82.64
2019-01-11T17:44:25.887Z,83.14
2019-01-11T17:46:56.429Z,83.10
2019-01-11T17:49:26.849Z,83.19
2019-01-11T17:51:57.349Z,82.85
2019-01-11T17:54:27.847Z,82.92
2019-01-11T17:56:58.348Z,83.05
2019-01-11T17:59:28.945Z,83.37
2019-01-11T18:01:59.473Z,82.90
2019-01-11T18:04:29.985Z,83.19
2019-01-11T18:07:00.453Z,82.85
2019-01-11T18:09:30.993Z,82.94
2019-01-11T18:12:01.525Z,82.89
2019-01-11T18:14:32.047Z,83.20
2019-01-11T18:17:02.600Z,83.83
2019-01-11T18:19:33.128Z,83.60
2019-01-11T18:22:03.733Z,83.71
2019-01-11T18:24:34.514Z,83.78
2019-01-11T18:27:05.048Z,83.33
2019-01-11T18:29:35.561Z,83.23
2019-01-11T18:32:06.184Z,83.38
2019-01-11T18:34:36.768Z,83.80
2019-01-11T18:37:07.256Z,83.98
2019-01-11T18:39:37.875Z,84.05
2019-01-11T18:42:08.476Z,83.87
2019-01-11T18:44:39.035Z,84.36
2019-01-11T18:47:09.866Z,84.11
2019-01-11T18:49:40.491Z,84.28
2019-01-11T18:52:11.057Z,84.41
2019-01-11T18:54:41.605Z,84.20
2019-01-11T18:57:12.149Z,84.18
2019-01-11T18:59:42.696Z,84.12
2019-01-11T19:02:13.281Z,84.68
2019-01-11T19:04:43.798Z,84.55
2019-01-11T19:07:14.414Z,84.58
2019-01-11T19:09:44.927Z,84.79
2019-01-11T19:12:15.467Z,84.70
2019-01-11T19:14:45.968Z,84.81
2019-01-11T19:17:16.641Z,84.97
2019-01-11T19:19:47.585Z,84.94
2019-01-11T19:22:18.086Z,85.14
2019-01-11T19:24:48.738Z,85.17
2019-01-11T19:27:19.524Z,85.63
2019-01-11T19:30:21.031Z,85.74
2019-01-11T19:32:52.555Z,85.93
2019-01-11T19:35:23.326Z,85.89
2019-01-11T19:37:54.268Z,85.73
2019-01-11T19:40:25.163Z,85.66
2019-01-11T19:42:55.902Z,85.76
2019-01-11T19:45:26.617Z,85.74
2019-01-11T19:47:57.553Z,85.72
2019-01-11T19:50:28.302Z,86.17
2019-01-11T19:52:59.038Z,86.14
2019-01-11T19:55:29.843Z,85.98
2019-01-11T19:58:02.942Z,85.82
2019-01-11T20:00:34.100Z,85.75
2019-01-11T20:03:04.788Z,85.63
2019-01-11T20:05:35.348Z,85.64
2019-01-11T20:08:06.220Z,85.66
2019-01-11T20:10:37.349Z,85.89
2019-01-11T20:13:07.933Z,85.74
2019-01-11T20:15:38.539Z,85.72
2019-01-11T20:18:09.493Z,85.54
2019-01-11T20:20:40.312Z,85.37
2019-01-11T20:23:11.410Z,85.56
2019-01-11T20:25:42.390Z,85.56
2019-01-11T20:28:13.000Z,85.29
2019-01-11T20:30:43.783Z,85.05
2019-01-11T20:33:18.425Z,84.72
2019-01-11T20:35:53.145Z,84.67
2019-01-11T20:38:23.955Z,84.33
2019-01-11T20:40:55.685Z,84.25
2019-01-11T20:43:26.348Z,84.17
2019-01-11T20:46:03.119Z,84.47
2019-01-11T20:48:30.706Z,84.32
2019-01-11T20:51:01.303Z,84.28
2019-01-11T20:53:32.123Z,84.14
2019-01-11T20:56:02.717Z,84.27
2019-01-11T20:58:33.348Z,84.28
2019-01-11T21:01:05.391Z,84.00
2019-01-11T21:03:36.014Z,83.61
2019-01-11T21:06:07.196Z,84.07
2019-01-11T21:08:37.850Z,84.30
2019-01-11T21:11:08.443Z,84.16
2019-01-11T21:13:39.030Z,84.23
2019-01-11T21:16:09.702Z,83.96
2019-01-11T21:18:40.316Z,83.90
2019-01-11T21:21:10.936Z,83.85
2019-01-11T21:23:48.438Z,83.81
2019-01-11T21:26:13.893Z,83.86
2019-01-11T21:28:44.490Z,83.66
2019-01-11T21:31:18.166Z,83.54
2019-01-11T21:33:48.821Z,83.70
2019-01-11T21:36:19.342Z,83.72
2019-01-11T21:38:51.155Z,83.50
2019-01-11T21:41:21.720Z,83.34
2019-01-11T21:43:52.261Z,83.47
2019-01-11T21:46:22.942Z,83.46
2019-01-11T21:48:54.837Z,83.57
2019-01-11T21:51:25.347Z,83.26
2019-01-11T21:53:56.019Z,83.44
2019-01-11T21:56:26.939Z,83.78
2019-01-11T21:58:58.322Z,83.39
2019-01-11T22:01:28.871Z,83.52
2019-01-11T22:03:59.440Z,83.67
2019-01-11T22:06:30.073Z,83.37
2019-01-11T22:09:00.667Z,83.33
2019-01-11T22:11:31.265Z,83.19
2019-01-11T22:14:02.005Z,83.15
2019-01-11T22:16:32.660Z,83.19
2019-01-11T22:19:03.202Z,83.31
2019-01-11T22:21:33.753Z,83.61
2019-01-11T22:24:04.313Z,83.61
2019-01-11T22:26:34.829Z,83.41
2019-01-11T22:29:05.333Z,83.70
2019-01-11T22:31:35.854Z,83.40
2019-01-11T22:34:06.357Z,83.66
2019-01-11T22:36:36.885Z,83.45
2019-01-11T22:39:09.852Z,83.59
2019-01-11T22:41:40.352Z,83.90
2019-01-11T22:44:10.890Z,83.96
2019-01-11T22:46:41.546Z,84.14
2019-01-11T22:49:12.065Z,83.85
2019-01-11T22:51:42.535Z,83.96
2019-01-11T22:54:13.075Z,83.82
2019-01-11T22:56:43.571Z,84.04
2019-01-11T22:59:14.101Z,84.25
2019-01-11T23:02:25.959Z,83.98
2019-01-11T23:04:56.450Z,84.21
2019-01-11T23:08:05.409Z,83.97
2019-01-11T23:11:24.933Z,83.72
2019-01-11T23:13:55.520Z,83.51
2019-01-11T23:16:40.226Z,82.96
2019-01-11T23:19:10.862Z,83.01
2019-01-11T23:21:41.376Z,82.43
2019-01-11T23:24:17.385Z,81.85
2019-01-11T23:26:44.178Z,81.56
2019-01-11T23:29:14.698Z,81.43
2019-01-11T23:31:45.189Z,81.18
2019-01-11T23:34:15.771Z,80.73
2019-01-11T23:36:46.243Z,80.74
2019-01-11T23:39:16.768Z,80.06
2019-01-11T23:41:47.298Z,79.92
2019-01-11T23:44:17.787Z,79.69
2019-01-11T23:46:48.285Z,79.99
2019-01-11T23:49:18.846Z,79.55
2019-01-11T23:51:49.348Z,79.02
2019-01-11T23:54:24.458Z,78.99
2019-01-11T23:56:52.225Z,79.21
2019-01-11T23:59:22.728Z,79.47
